Keokuk, IA

2:00 PM CST on February 14, 2016 (GMT -0600)
Keokuk Municipal | | Change Station
CLOSE
Current Station
Airport
Location: Keokuk,
Elevation: 673 ft
Nearby Weather Stations
Active Advisory: Winter Weather Advisory Active Notice: Local Storm Report

Elev 673 ft 40.46 °N, 91.43 °W | Updated 25 minutes ago

Overcast
Overcast
21 °F
Feels Like 12 °F
N
8
Wind Variable Wind from SE

Today
High -- | Low -- °F
--% Chance of Precip.
Yesterday
High -- | Low -- °F
Precip. -- in
Pressure 29.95 in
Visibility 10.0 miles
Clouds Overcast 1400 ft
Windchill 12 °F
Dew Point 18 °F
Humidity 86%
Rainfall 0.03 in
Snow Depth Not available.
7:01 AM 5:39 PM
Waxing Crescent, 44% visible
METAR KEOK 141935Z AUTO 13007KT 10SM OVC014 M06/M08 A2995 RMK AO2
Pressure 29.95 in
Visibility 10.0 miles
Clouds Overcast 1400 ft
Windchill 12 °F
Dew Point 18 °F
Humidity 86%
Rainfall 0.03 in
Snow Depth Not available.
7:01 AM 5:39 PM
Waxing Crescent, 44% visible
METAR KEOK 141935Z AUTO 13007KT 10SM OVC014 M06/M08 A2995 RMK AO2

10-Day Weather Forecast

Almanac

Astronomy

Feb. 14, 2016 Rise Set
Actual Time
Civil Twilight
Nautical Twilight
Astronomical Twilight
Moon
Length of Visible Light
Length of Day
Tomorrow will be .
, % of the Moon is Illuminated

Today's Extremes

State Highs State Lows

Community

WunderPhotos

Upload Photos

1,892,879 photos uploaded!

WunderBlog® & News

Nearby

Air Quality

  Air Quality AQ Index Pollutant
Not available.

Snow Depth

Station Depth Elevation

Earthquake Activity

City Distance Mag. Time & Date
Minimum magnitude displayed is 2.5.

Coastal Water Temperatures

Place Temperature

Stations

Nearby Weather Stations

Station Location Temp. Windchill Dew Point Humidity Wind Precip. Elev Updated Type
                   

Watches & Warnings

Winter Weather Advisory
Issued: 10:34 AM CST Feb. 14, 2016 – National Weather Service

... Winter Weather Advisory remains in effect until 6 PM CST this
evening...

* timing... through much of the day... diminishing by mid to late
afternoon.

* Snow accumulations... 2 to 5 inches.

* Wind... southeast 10 to 15 mph with gusts up to 20 mph.

* Visibilities... less than a mile in the heavier snow at times.

* Impacts... snow covered and hazardous roads and low visibility
in heavier snowfall. Drifting snow possible this morning.

Precautionary/preparedness actions...

A Winter Weather Advisory for snow means that periods of snow
will cause travel difficulties. Be prepared for slick... snow
covered roads and limited visibilities... and be careful while
driving.